Aviation Digital Data Service (ADDS)

Output produced by METARs form (1109 UTC 19 January 2019)
found at http://www.aviationweather.gov/metar/data/
 
DFOO 191000Z 34010KT 310V010 CAVOK 26/M05 Q1017
TAF DFOO 190500Z 1906/2006 VRB08KT 8000 NSC 
     TEMPO 1906/1910 4000 DU
       
DFFD 191000Z 04010KT 010V070 CAVOK 26/M11 Q1017 NOSIG
TAF DFFD 190500Z 1906/2012 VRB08KT 8000 NSC 
     TEMPO 1906/1910 1400 DU 
     TEMPO 1917/1921 4000 DU 
     TEMPO 2006/2010 2000 DU